Time;durP1;ratioP1;P1;durP2;ratioP2;P2;SDS_P1;SDS_P2;PMS_P1;PMS_P2;Temp;Humidity;BMP_temperature;BMP_pressure;BME280_temperature;BME280_humidity;BME280_pressure;Samples;Min_cycle;Max_cycle;Signal;HPM_P1;HPM_P2
2021/03/18 00:00:46;;;;;;;1.23;0.98;;;20.00;45.50;;;;;;6196160;28;20030;-66
2021/03/18 00:03:47;;;;;;;1.40;1.00;;;20.00;45.40;;;;;;6196218;28;20022;-66
2021/03/18 00:06:49;;;;;;;1.00;0.90;;;20.00;45.40;;;;;;6195861;28;20026;-66
2021/03/18 00:09:49;;;;;;;0.90;0.75;;;20.00;45.50;;;;;;6195675;28;20493;-66
2021/03/18 00:12:50;;;;;;;1.27;0.88;;;20.00;45.40;;;;;;6195876;28;20026;-66
2021/03/18 00:15:51;;;;;;;1.15;0.88;;;20.00;45.40;;;;;;6195733;28;20030;-66
2021/03/18 00:18:54;;;;;;;1.67;0.90;;;20.00;45.40;;;;;;6195616;28;20030;-66
2021/03/18 00:21:55;;;;;;;0.80;0.80;;;20.00;45.40;;;;;;6195792;28;20045;-66
2021/03/18 00:24:55;;;;;;;1.60;1.02;;;20.00;45.40;;;;;;6195744;28;20116;-66
2021/03/18 00:27:56;;;;;;;1.40;1.00;;;20.00;45.40;;;;;;6195285;28;20037;-66
2021/03/18 00:30:57;;;;;;;0.88;0.77;;;20.00;45.40;;;;;;6196197;28;20447;-66
2021/03/18 00:33:58;;;;;;;1.00;0.80;;;20.00;45.40;;;;;;6195854;28;20034;-68
2021/03/18 00:36:58;;;;;;;2.00;1.10;;;20.00;45.40;;;;;;6195326;28;20101;-66
2021/03/18 00:39:59;;;;;;;1.35;1.00;;;20.00;45.50;;;;;;6195250;28;20134;-66
2021/03/18 00:43:05;;;;;;;2.28;1.30;;;20.00;45.40;;;;;;6195329;28;20034;-66
2021/03/18 00:46:06;;;;;;;1.85;1.00;;;20.00;45.50;;;;;;6194599;28;20434;-67
2021/03/18 00:49:08;;;;;;;1.25;1.10;;;20.00;45.50;;;;;;6195148;28;20038;-66
2021/03/18 00:52:09;;;;;;;1.30;1.05;;;20.00;45.40;;;;;;6195373;28;20034;-66
2021/03/18 00:55:10;;;;;;;1.52;1.13;;;20.00;45.40;;;;;;6195227;28;20030;-66
2021/03/18 00:58:11;;;;;;;1.45;0.93;;;20.00;45.50;;;;;;6195188;28;20105;-66
2021/03/18 01:01:14;;;;;;;1.55;1.15;;;20.00;45.50;;;;;;6195505;28;20027;-66
2021/03/18 01:04:14;;;;;;;1.63;1.00;;;20.00;45.50;;;;;;6194879;28;20026;-67
2021/03/18 01:07:15;;;;;;;1.00;0.80;;;20.00;45.50;;;;;;6194968;28;20030;-66
2021/03/18 01:10:16;;;;;;;1.25;1.00;;;20.00;45.40;;;;;;6207651;28;20022;-66
2021/03/18 01:13:19;;;;;;;1.30;0.95;;;20.00;45.40;;;;;;6210073;28;20030;-67
2021/03/18 01:16:23;;;;;;;1.90;1.27;;;20.00;45.50;;;;;;6194922;28;20132;-66
2021/03/18 01:19:24;;;;;;;1.20;1.08;;;20.00;45.40;;;;;;6194853;28;20042;-66
2021/03/18 01:22:24;;;;;;;0.90;0.80;;;20.00;45.40;;;;;;6194637;28;20030;-66
2021/03/18 01:25:25;;;;;;;1.27;0.90;;;20.00;45.50;;;;;;6194924;28;20073;-66
2021/03/18 01:28:26;;;;;;;1.10;0.98;;;20.00;45.50;;;;;;6194796;28;20030;-67
2021/03/18 01:31:27;;;;;;;1.48;1.08;;;20.00;45.50;;;;;;6194913;28;20038;-66
2021/03/18 01:34:27;;;;;;;1.17;0.90;;;20.00;45.50;;;;;;6194554;28;20026;-66
2021/03/18 01:37:28;;;;;;;1.80;1.02;;;20.00;45.50;;;;;;6194774;28;20034;-66
2021/03/18 01:40:31;;;;;;;1.30;1.10;;;20.00;45.40;;;;;;6194333;28;20034;-66
2021/03/18 01:43:32;;;;;;;1.05;0.80;;;19.90;45.30;;;;;;6194911;28;20038;-66
2021/03/18 01:46:34;;;;;;;1.65;1.00;;;20.00;45.50;;;;;;6194727;28;20029;-66
2021/03/18 01:49:34;;;;;;;1.23;0.90;;;19.90;45.30;;;;;;6194588;28;20026;-66
2021/03/18 01:52:35;;;;;;;1.17;0.90;;;20.00;45.50;;;;;;6194688;28;20018;-66
2021/03/18 01:55:42;;;;;;;1.17;1.05;;;19.90;45.30;;;;;;6194578;28;20069;-66
2021/03/18 01:58:45;;;;;;;1.27;0.93;;;20.00;45.50;;;;;;6198530;28;20038;-66
2021/03/18 02:01:46;;;;;;;1.25;0.82;;;19.90;45.40;;;;;;6199316;28;20393;-66
2021/03/18 02:04:46;;;;;;;1.48;0.95;;;19.90;45.30;;;;;;6198889;28;20224;-66
2021/03/18 02:07:52;;;;;;;1.13;0.95;;;19.90;45.40;;;;;;6198814;28;20022;-66
2021/03/18 02:10:53;;;;;;;1.00;0.90;;;19.90;45.40;;;;;;6198695;28;20034;-66
2021/03/18 02:13:53;;;;;;;1.00;0.90;;;19.90;45.40;;;;;;6196804;28;20105;-66
2021/03/18 02:16:58;;;;;;;1.25;0.80;;;19.90;45.40;;;;;;6198339;28;20517;-66
2021/03/18 02:20:27;;;;;;;1.20;0.98;;;19.90;45.30;;;;;;6198304;28;20150;-66
2021/03/18 02:24:01;;;;;;;1.30;0.80;;;19.90;45.40;;;;;;6213572;28;20109;-66
2021/03/18 02:27:30;;;;;;;1.27;1.15;;;19.90;45.30;;;;;;6198457;28;20069;-66
2021/03/18 02:30:40;;;;;;;1.08;0.77;;;19.90;45.40;;;;;;6198118;28;20030;-66
2021/03/18 02:34:30;;;;;;;1.88;0.88;;;19.90;45.40;;;;;;6197895;28;20026;-66
2021/03/18 02:37:32;;;;;;;2.15;1.10;;;19.90;45.30;;;;;;6099455;29;20064;-67
2021/03/18 02:40:37;;;;;;;1.00;0.75;;;19.90;45.30;;;;;;6099380;29;20036;-66
2021/03/18 02:43:42;;;;;;;1.52;1.10;;;19.90;45.40;;;;;;6197083;28;20030;-66
2021/03/18 02:46:44;;;;;;;0.90;0.80;;;19.90;45.40;;;;;;6208482;28;20492;-66
2021/03/18 02:49:46;;;;;;;1.30;1.00;;;19.90;45.40;;;;;;6216642;28;20022;-66
2021/03/18 02:52:48;;;;;;;1.30;0.80;;;19.90;45.30;;;;;;6197690;28;20045;-66
2021/03/18 02:55:50;;;;;;;1.13;0.90;;;19.90;45.40;;;;;;6201505;28;20030;-67
2021/03/18 02:58:54;;;;;;;1.27;0.80;;;19.90;45.40;;;;;;6197734;28;20115;-66
2021/03/18 03:01:56;;;;;;;1.23;0.90;;;19.90;45.40;;;;;;6197456;28;20058;-66
2021/03/18 03:04:58;;;;;;;0.68;0.60;;;19.90;45.40;;;;;;6197307;28;20564;-66
2021/03/18 03:07:59;;;;;;;1.15;0.90;;;19.90;45.40;;;;;;6196888;28;20030;-66
2021/03/18 03:11:02;;;;;;;1.45;1.20;;;19.90;45.30;;;;;;6196962;28;20023;-67
2021/03/18 03:14:04;;;;;;;1.05;0.90;;;19.90;45.40;;;;;;6197413;28;20556;-66
2021/03/18 03:17:05;;;;;;;1.70;0.88;;;19.90;45.40;;;;;;6197237;28;20062;-66
2021/03/18 03:20:08;;;;;;;1.05;0.73;;;19.90;45.30;;;;;;6197079;28;20369;-66
2021/03/18 03:23:09;;;;;;;1.20;0.80;;;19.90;45.40;;;;;;6197131;28;20038;-66
2021/03/18 03:26:10;;;;;;;1.45;0.90;;;19.90;45.30;;;;;;6195596;28;20030;-66
2021/03/18 03:29:11;;;;;;;1.00;0.90;;;19.90;45.30;;;;;;6196583;28;20049;-66
2021/03/18 03:32:13;;;;;;;1.10;0.80;;;19.90;45.40;;;;;;6201386;28;20029;-66
2021/03/18 03:35:15;;;;;;;1.15;0.90;;;19.90;45.30;;;;;;6218349;28;20089;-67
2021/03/18 03:38:16;;;;;;;1.00;0.82;;;19.90;45.40;;;;;;6211053;28;20045;-67
2021/03/18 03:41:16;;;;;;;1.55;1.10;;;19.90;45.40;;;;;;6210345;28;20069;-66
2021/03/18 03:44:17;;;;;;;0.95;0.80;;;19.90;45.30;;;;;;6196609;28;20429;-67
2021/03/18 03:47:17;;;;;;;1.00;0.80;;;19.90;45.40;;;;;;6196167;28;20440;-66
2021/03/18 03:50:22;;;;;;;1.10;0.95;;;19.90;45.40;;;;;;6194454;28;20085;-66
2021/03/18 03:53:43;;;;;;;1.25;0.80;;;19.90;45.40;;;;;;6219659;28;20056;-67
2021/03/18 03:56:55;;;;;;;1.20;0.82;;;19.90;45.30;;;;;;6208453;28;20029;-66
2021/03/18 03:59:57;;;;;;;0.95;0.80;;;19.90;45.40;;;;;;6196127;28;20073;-66
2021/03/18 04:03:02;;;;;;;0.90;0.70;;;19.90;45.50;;;;;;6196309;28;20026;-66
2021/03/18 04:06:04;;;;;;;1.52;0.98;;;19.90;45.40;;;;;;6195540;28;20050;-66
2021/03/18 04:09:07;;;;;;;0.90;0.80;;;19.90;45.40;;;;;;6196322;28;20477;-66
2021/03/18 04:12:09;;;;;;;1.05;0.90;;;19.90;45.50;;;;;;6195897;28;20029;-66
2021/03/18 04:15:17;;;;;;;1.20;0.90;;;19.90;45.40;;;;;;6196030;28;20473;-66
2021/03/18 04:18:20;;;;;;;0.70;0.70;;;19.90;45.40;;;;;;6195577;28;20106;-66
2021/03/18 04:21:21;;;;;;;0.95;0.68;;;19.90;45.40;;;;;;6194874;28;20035;-66
2021/03/18 04:24:24;;;;;;;1.40;1.00;;;19.90;45.30;;;;;;6214099;28;20022;-66
2021/03/18 04:27:27;;;;;;;1.27;0.90;;;19.90;45.30;;;;;;6206389;28;20089;-66
2021/03/18 04:30:28;;;;;;;1.00;0.90;;;19.90;45.40;;;;;;6195591;28;20033;-66
2021/03/18 04:33:29;;;;;;;0.80;0.73;;;19.80;45.30;;;;;;6195274;28;20109;-66
2021/03/18 04:36:31;;;;;;;1.02;0.93;;;19.90;45.40;;;;;;6195338;28;20036;-66
2021/03/18 04:39:34;;;;;;;1.05;0.70;;;19.90;45.40;;;;;;6194816;28;20042;-67
2021/03/18 04:42:35;;;;;;;0.88;0.73;;;19.90;45.40;;;;;;6195370;28;20042;-66
2021/03/18 04:45:37;;;;;;;0.70;0.70;;;19.90;45.40;;;;;;6195610;28;20057;-66
2021/03/18 04:48:39;;;;;;;1.23;0.98;;;19.80;45.30;;;;;;6195233;28;20499;-66
2021/03/18 04:51:42;;;;;;;0.80;0.80;;;19.80;45.30;;;;;;6195464;28;20044;-66
2021/03/18 04:54:43;;;;;;;0.80;0.70;;;19.80;45.30;;;;;;6195202;28;20034;-66
2021/03/18 04:57:47;;;;;;;1.30;0.90;;;19.80;45.30;;;;;;6194636;28;20061;-67
2021/03/18 05:00:50;;;;;;;1.00;0.80;;;19.80;45.30;;;;;;6195272;28;20027;-67
2021/03/18 05:03:51;;;;;;;0.98;0.75;;;19.80;45.30;;;;;;6194826;28;20030;-66
2021/03/18 05:06:54;;;;;;;0.70;0.70;;;19.80;45.30;;;;;;6194796;28;20015;-66
2021/03/18 05:09:55;;;;;;;0.90;0.80;;;19.80;45.30;;;;;;6195757;28;20033;-66
2021/03/18 05:12:57;;;;;;;1.08;0.80;;;19.80;45.30;;;;;;6195009;28;20489;-66
2021/03/18 05:15:59;;;;;;;1.20;0.90;;;19.80;45.30;;;;;;6194558;28;20425;-66
2021/03/18 05:18:59;;;;;;;1.10;0.82;;;19.90;45.40;;;;;;6194877;28;20034;-66
2021/03/18 05:22:00;;;;;;;1.20;0.90;;;19.90;45.20;;;;;;6195157;28;20524;-66
2021/03/18 05:25:02;;;;;;;1.25;1.00;;;19.90;45.30;;;;;;6194955;28;20156;-67
2021/03/18 05:28:04;;;;;;;0.75;0.75;;;19.90;45.30;;;;;;6194974;28;20063;-67
2021/03/18 05:31:04;;;;;;;1.70;1.00;;;19.90;45.20;;;;;;6210179;28;20062;-67
2021/03/18 05:34:05;;;;;;;1.17;1.00;;;19.90;45.20;;;;;;6207735;28;20026;-66
2021/03/18 05:37:06;;;;;;;1.23;0.90;;;19.90;45.20;;;;;;6199515;28;20018;-66
2021/03/18 05:40:10;;;;;;;1.33;0.90;;;19.90;45.40;;;;;;6199149;28;20370;-66
2021/03/18 05:43:10;;;;;;;1.00;0.90;;;19.90;45.20;;;;;;6199182;28;20114;-66
2021/03/18 05:46:13;;;;;;;0.88;0.80;;;19.90;45.20;;;;;;6199638;28;20275;-66
2021/03/18 05:49:15;;;;;;;0.77;0.73;;;19.90;45.20;;;;;;6199245;28;20031;-66
2021/03/18 05:52:16;;;;;;;0.88;0.82;;;19.90;45.30;;;;;;6198774;28;20030;-67
2021/03/18 05:55:20;;;;;;;1.30;1.02;;;19.90;45.20;;;;;;6199005;28;20041;-67
2021/03/18 05:58:24;;;;;;;1.50;0.88;;;19.90;45.20;;;;;;6198740;28;20034;-67
2021/03/18 06:01:25;;;;;;;1.60;1.08;;;19.90;45.10;;;;;;6198932;28;20537;-67
2021/03/18 06:04:26;;;;;;;1.20;1.00;;;19.90;45.20;;;;;;6199001;28;20030;-67
2021/03/18 06:07:26;;;;;;;1.38;1.10;;;19.90;45.20;;;;;;6198576;28;20026;-66
2021/03/18 06:10:27;;;;;;;1.17;1.08;;;19.90;45.20;;;;;;6198243;28;20049;-66
2021/03/18 06:13:27;;;;;;;1.27;1.08;;;19.90;45.10;;;;;;6198521;28;20033;-67
2021/03/18 06:16:29;;;;;;;1.13;0.95;;;19.90;45.20;;;;;;6198714;28;20058;-67
2021/03/18 06:19:29;;;;;;;1.10;1.00;;;19.90;45.20;;;;;;6198244;28;20430;-67
2021/03/18 06:22:41;;;;;;;1.10;0.95;;;19.90;45.10;;;;;;6204599;28;20045;-66
2021/03/18 06:25:42;;;;;;;3.97;1.20;;;19.90;45.50;;;;;;6201744;28;20432;-66
2021/03/18 06:28:43;;;;;;;1.85;1.10;;;19.90;45.20;;;;;;6196248;28;20010;-66
2021/03/18 06:31:43;;;;;;;3.15;1.00;;;19.90;45.10;;;;;;6204060;28;20025;-67
2021/03/18 06:34:57;;;;;;;1.55;1.00;;;19.90;45.30;;;;;;6202815;28;20026;-66
2021/03/18 06:37:58;;;;;;;2.05;1.05;;;19.90;45.30;;;;;;6213718;28;20042;-66
2021/03/18 06:40:59;;;;;;;2.92;1.27;;;19.90;46.10;;;;;;6209964;28;20384;-66
2021/03/18 06:44:00;;;;;;;2.95;1.45;;;19.90;45.60;;;;;;6206439;28;20881;-66
2021/03/18 06:47:09;;;;;;;7.20;3.00;;;19.90;45.60;;;;;;6208589;28;20069;-66
2021/03/18 06:50:15;;;;;;;12.18;5.70;;;19.90;45.60;;;;;;6210032;28;20389;-66
2021/03/18 06:53:24;;;;;;;9.98;4.90;;;19.90;45.60;;;;;;6208913;28;20033;-66
2021/03/18 06:56:33;;;;;;;10.27;5.10;;;19.90;45.70;;;;;;6207131;28;20152;-67
2021/03/18 06:59:37;;;;;;;11.23;5.53;;;19.90;45.70;;;;;;6210872;28;20101;-66
2021/03/18 07:02:41;;;;;;;15.18;6.57;;;19.90;45.70;;;;;;6210246;28;20432;-66
2021/03/18 07:05:42;;;;;;;14.18;6.63;;;19.90;45.80;;;;;;6206692;28;20026;-66
2021/03/18 07:08:42;;;;;;;15.25;7.40;;;19.90;45.80;;;;;;6213454;28;20088;-67
2021/03/18 07:11:45;;;;;;;19.30;8.15;;;19.90;45.50;;;;;;6209718;28;20022;-66
2021/03/18 07:14:47;;;;;;;16.92;7.63;;;19.90;45.50;;;;;;6208253;28;20015;-66
2021/03/18 07:17:58;;;;;;;17.95;7.80;;;19.90;46.30;;;;;;6210813;28;20058;-66
2021/03/18 07:21:13;;;;;;;17.35;6.57;;;19.90;45.60;;;;;;6208922;28;20504;-66
2021/03/18 07:24:38;;;;;;;15.85;7.97;;;19.90;45.70;;;;;;6210239;28;20092;-67
2021/03/18 07:27:49;;;;;;;14.80;6.72;;;19.90;45.60;;;;;;6206215;28;20065;-68
2021/03/18 07:30:51;;;;;;;22.08;8.20;;;20.00;45.70;;;;;;6211606;28;20018;-67
2021/03/18 07:33:52;;;;;;;17.23;7.88;;;20.00;45.50;;;;;;6206460;28;20385;-67
2021/03/18 07:36:56;;;;;;;19.23;7.97;;;20.10;45.40;;;;;;6207148;28;20061;-67
2021/03/18 07:39:59;;;;;;;18.40;7.80;;;20.10;45.30;;;;;;6210445;28;20091;-67
2021/03/18 07:43:00;;;;;;;17.20;7.75;;;20.20;45.20;;;;;;6208923;28;20047;-67
2021/03/18 07:46:03;;;;;;;19.13;7.57;;;20.20;45.10;;;;;;6208337;28;20109;-67
2021/03/18 07:49:15;;;;;;;14.95;7.50;;;20.20;45.00;;;;;;6211297;28;20088;-67
2021/03/18 07:52:20;;;;;;;18.20;7.93;;;20.20;44.90;;;;;;6210968;28;20079;-67
2021/03/18 07:55:21;;;;;;;14.32;6.70;;;20.30;45.00;;;;;;6209794;28;20022;-67
2021/03/18 07:58:42;;;;;;;16.38;6.68;;;20.30;44.90;;;;;;6209399;28;20077;-67
2021/03/18 08:01:42;;;;;;;15.57;6.53;;;20.30;44.80;;;;;;6208188;28;20030;-67
2021/03/18 08:04:51;;;;;;;15.35;6.80;;;20.30;44.80;;;;;;6206968;28;20061;-67
2021/03/18 08:07:51;;;;;;;14.55;6.43;;;20.30;44.90;;;;;;6208292;28;20064;-68
2021/03/18 08:11:11;;;;;;;15.15;6.25;;;20.40;45.30;;;;;;6209994;28;20062;-68
2021/03/18 08:14:20;;;;;;;16.55;6.70;;;20.30;45.00;;;;;;6207422;28;20370;-68
2021/03/18 08:17:28;;;;;;;11.65;5.63;;;20.30;45.00;;;;;;6209247;28;20141;-68
2021/03/18 08:20:51;;;;;;;12.70;5.50;;;20.40;45.10;;;;;;6208971;28;20038;-68
2021/03/18 08:23:55;;;;;;;14.25;5.93;;;20.40;45.30;;;;;;6207374;28;20025;-68
2021/03/18 08:27:06;;;;;;;12.55;6.22;;;20.30;45.10;;;;;;6207542;28;20027;-68
2021/03/18 08:30:21;;;;;;;19.10;6.50;;;20.30;45.00;;;;;;6211134;28;20030;-68
2021/03/18 08:33:49;;;;;;;14.07;5.93;;;20.30;45.10;;;;;;6208373;28;20488;-68
2021/03/18 08:36:58;;;;;;;13.52;6.28;;;20.30;45.10;;;;;;6203907;28;20156;-68
2021/03/18 08:39:59;;;;;;;14.40;6.15;;;20.30;45.30;;;;;;6207801;28;20038;-68
2021/03/18 08:43:03;;;;;;;14.63;5.63;;;20.30;45.30;;;;;;6209649;28;20096;-68
2021/03/18 08:46:04;;;;;;;14.17;6.03;;;20.30;45.30;;;;;;6210141;28;20022;-69
2021/03/18 08:49:33;;;;;;;12.30;5.40;;;20.30;45.30;;;;;;6209313;28;20053;-69
2021/03/18 08:52:43;;;;;;;10.60;5.30;;;20.30;45.30;;;;;;6206259;28;20057;-69
2021/03/18 08:55:47;;;;;;;10.43;5.13;;;20.30;45.30;;;;;;6201374;28;20077;-67
2021/03/18 08:58:50;;;;;;;11.57;6.28;;;20.30;45.30;;;;;;6202109;28;20503;-68
2021/03/18 09:02:02;;;;;;;9.07;5.82;;;20.20;44.40;;;;;;6206550;28;20510;-68
2021/03/18 09:05:15;;;;;;;10.98;5.88;;;20.20;42.80;;;;;;6206284;28;20040;-68
2021/03/18 09:08:21;;;;;;;10.55;5.20;;;20.20;42.90;;;;;;6210856;28;20026;-69
2021/03/18 09:11:24;;;;;;;8.55;4.90;;;20.20;42.20;;;;;;6207576;28;20084;-68
2021/03/18 09:14:24;;;;;;;12.15;4.95;;;20.20;41.60;;;;;;6205985;28;20034;-68
2021/03/18 09:17:26;;;;;;;13.40;5.45;;;20.10;41.00;;;;;;6203765;28;20054;-68
2021/03/18 09:20:33;;;;;;;13.75;5.38;;;20.10;41.70;;;;;;6204418;28;20574;-69
2021/03/18 09:23:42;;;;;;;7.00;4.53;;;20.10;39.70;;;;;;6201621;28;20038;-68
2021/03/18 09:26:42;;;;;;;7.82;3.92;;;20.20;39.10;;;;;;6204275;28;20040;-68
2021/03/18 09:29:43;;;;;;;8.93;4.00;;;20.20;39.20;;;;;;6205558;28;20473;-68
2021/03/18 09:32:44;;;;;;;7.15;3.95;;;20.20;39.60;;;;;;6203704;28;20018;-68
2021/03/18 09:35:45;;;;;;;9.18;3.40;;;20.20;40.00;;;;;;6208794;28;20366;-68
2021/03/18 09:39:09;;;;;;;9.80;2.95;;;20.20;40.40;;;;;;6204592;28;20038;-69
2021/03/18 09:42:09;;;;;;;8.88;3.00;;;20.20;40.70;;;;;;6204516;28;20026;-68
2021/03/18 09:45:17;;;;;;;5.20;2.75;;;20.20;40.90;;;;;;6203115;28;20539;-69
2021/03/18 09:48:44;;;;;;;3.70;2.42;;;20.20;41.20;;;;;;6205923;28;20040;-68
2021/03/18 09:51:44;;;;;;;3.63;2.10;;;20.20;41.50;;;;;;6204946;28;20034;-68
2021/03/18 09:54:45;;;;;;;9.02;2.50;;;20.20;41.70;;;;;;6208432;28;20380;-68
2021/03/18 09:57:45;;;;;;;4.07;2.20;;;20.20;41.90;;;;;;6205490;28;20088;-68
2021/03/18 10:00:46;;;;;;;4.00;2.08;;;20.20;42.00;;;;;;6206853;28;20044;-68
2021/03/18 10:03:52;;;;;;;3.53;1.95;;;20.20;42.00;;;;;;6207424;28;20025;-68
2021/03/18 10:06:56;;;;;;;6.95;2.38;;;20.20;42.20;;;;;;6200024;28;20054;-67
2021/03/18 10:09:57;;;;;;;4.55;2.03;;;20.30;42.70;;;;;;6206512;28;20034;-68
2021/03/18 10:12:58;;;;;;;8.52;2.22;;;20.30;42.90;;;;;;6208873;28;20085;-68
2021/03/18 10:15:58;;;;;;;4.22;2.28;;;20.30;42.60;;;;;;6206740;28;20078;-68
2021/03/18 10:18:59;;;;;;;6.60;2.45;;;20.30;42.70;;;;;;6203780;28;20087;-68
2021/03/18 10:22:08;;;;;;;5.22;2.25;;;20.30;42.80;;;;;;6206507;28;20036;-68
2021/03/18 10:25:13;;;;;;;5.55;2.08;;;20.30;43.00;;;;;;6197065;28;20040;-68
2021/03/18 10:28:15;;;;;;;5.95;2.33;;;20.30;42.20;;;;;;6202976;28;20492;-68
2021/03/18 10:31:19;;;;;;;4.28;2.28;;;20.30;42.40;;;;;;6204476;28;20500;-68
2021/03/18 10:34:24;;;;;;;4.60;1.90;;;20.30;42.60;;;;;;6200390;28;20398;-68
2021/03/18 10:37:31;;;;;;;3.20;1.67;;;20.30;42.70;;;;;;6203153;28;20034;-68
2021/03/18 10:40:39;;;;;;;2.58;1.70;;;20.30;42.80;;;;;;6202903;28;20037;-68
2021/03/18 10:43:46;;;;;;;2.85;1.60;;;20.30;42.90;;;;;;6201430;28;20035;-68
2021/03/18 10:46:47;;;;;;;2.40;1.52;;;20.30;43.00;;;;;;6201562;28;20124;-67
2021/03/18 10:50:03;;;;;;;2.95;1.75;;;20.30;43.10;;;;;;6203285;28;20563;-67
2021/03/18 10:53:07;;;;;;;7.78;1.98;;;20.30;43.20;;;;;;6201506;28;20481;-67
2021/03/18 10:56:09;;;;;;;3.15;1.50;;;20.30;43.00;;;;;;6201987;28;20030;-67
2021/03/18 10:59:17;;;;;;;2.50;1.70;;;20.30;43.40;;;;;;6200394;28;20061;-68
2021/03/18 11:02:18;;;;;;;2.25;1.50;;;20.30;43.20;;;;;;6198936;28;20034;-67
2021/03/18 11:05:28;;;;;;;6.10;1.40;;;20.30;43.20;;;;;;6200556;28;20117;-67
2021/03/18 11:08:33;;;;;;;26.85;2.35;;;20.30;43.10;;;;;;6199101;28;20037;-68
2021/03/18 11:11:33;;;;;;;10.55;2.15;;;20.30;43.00;;;;;;6199249;28;20019;-67
2021/03/18 11:14:34;;;;;;;10.60;1.90;;;20.30;43.20;;;;;;6197741;28;20076;-67
2021/03/18 11:17:35;;;;;;;15.30;1.80;;;20.30;43.50;;;;;;6200207;28;20113;-67
2021/03/18 11:20:38;;;;;;;5.45;1.70;;;20.40;43.50;;;;;;6195810;28;20172;-67
2021/03/18 11:23:39;;;;;;;11.80;1.80;;;20.30;43.50;;;;;;6198866;28;20032;-67
2021/03/18 11:26:52;;;;;;;7.22;2.40;;;20.40;43.90;;;;;;6196705;28;20104;-67
2021/03/18 11:29:53;;;;;;;4.82;1.77;;;20.40;43.80;;;;;;6199979;28;20030;-67
2021/03/18 11:33:11;;;;;;;4.68;1.77;;;20.40;43.70;;;;;;6197793;28;20033;-67
2021/03/18 11:36:13;;;;;;;6.07;1.65;;;20.40;43.70;;;;;;6197359;28;20041;-66
2021/03/18 11:39:14;;;;;;;4.22;1.65;;;20.40;44.00;;;;;;6196921;28;20517;-67
2021/03/18 11:42:15;;;;;;;2.55;1.20;;;20.40;43.90;;;;;;6201282;28;20414;-68
2021/03/18 11:45:16;;;;;;;18.48;2.25;;;20.40;43.90;;;;;;6202166;28;20279;-67
2021/03/18 11:48:16;;;;;;;4.53;1.58;;;20.50;44.10;;;;;;6201359;28;20033;-67
2021/03/18 11:51:17;;;;;;;14.77;1.40;;;20.40;43.90;;;;;;6196760;28;20038;-68
2021/03/18 11:54:17;;;;;;;8.57;1.67;;;20.40;43.90;;;;;;6196290;28;20034;-68
2021/03/18 11:57:20;;;;;;;2.50;1.25;;;20.40;44.00;;;;;;6200254;28;20053;-67
2021/03/18 12:00:21;;;;;;;6.95;1.45;;;20.40;43.90;;;;;;6199293;28;20388;-67
2021/03/18 12:03:22;;;;;;;4.90;1.90;;;20.40;44.10;;;;;;6200084;28;20026;-67
2021/03/18 12:06:22;;;;;;;3.00;1.30;;;20.40;44.00;;;;;;6206248;28;20096;-67
2021/03/18 12:09:23;;;;;;;4.05;1.30;;;20.40;44.10;;;;;;6208394;28;20399;-68
2021/03/18 12:12:23;;;;;;;4.13;1.60;;;20.40;44.50;;;;;;6205390;28;20053;-67
2021/03/18 12:15:25;;;;;;;4.50;1.35;;;20.40;44.40;;;;;;6201709;28;20082;-67
2021/03/18 12:18:25;;;;;;;5.03;1.40;;;20.40;44.40;;;;;;6200642;28;20104;-68
2021/03/18 12:21:26;;;;;;;1.95;1.20;;;20.40;44.30;;;;;;6204631;28;20482;-68
2021/03/18 12:24:26;;;;;;;2.10;1.52;;;20.40;44.30;;;;;;6213945;28;20026;-68
2021/03/18 12:27:27;;;;;;;2.42;1.40;;;20.40;44.40;;;;;;6205248;28;20038;-68
2021/03/18 12:30:27;;;;;;;2.20;1.52;;;20.40;44.40;;;;;;6196075;28;20037;-68
2021/03/18 12:33:28;;;;;;;2.95;1.30;;;20.40;44.30;;;;;;6196626;28;20030;-68
2021/03/18 12:36:29;;;;;;;2.15;1.30;;;20.40;44.30;;;;;;6196376;28;20038;-68
2021/03/18 12:39:29;;;;;;;2.20;1.23;;;20.40;44.30;;;;;;6196240;28;20122;-68
2021/03/18 12:42:30;;;;;;;3.00;1.40;;;20.30;44.10;;;;;;6196041;28;20057;-68
2021/03/18 12:45:33;;;;;;;1.77;1.30;;;20.40;44.20;;;;;;6194184;28;20501;-68
2021/03/18 12:48:34;;;;;;;1.02;0.93;;;20.40;44.20;;;;;;6196392;28;20034;-67
2021/03/18 12:51:36;;;;;;;2.75;1.58;;;20.40;44.20;;;;;;6196212;28;20025;-67
2021/03/18 12:54:36;;;;;;;2.30;1.33;;;20.40;44.20;;;;;;6196286;28;20535;-68
2021/03/18 12:57:39;;;;;;;1.40;1.20;;;20.40;44.10;;;;;;6202709;28;20023;-68
2021/03/18 13:00:40;;;;;;;1.80;1.00;;;20.40;44.10;;;;;;6196132;28;20035;-68
2021/03/18 13:03:41;;;;;;;1.85;1.20;;;20.40;44.10;;;;;;6195497;28;20029;-68
2021/03/18 13:06:42;;;;;;;4.30;1.17;;;20.30;44.10;;;;;;6196019;28;20109;-68
2021/03/18 13:09:43;;;;;;;1.70;1.00;;;20.40;44.30;;;;;;6196002;28;20421;-68
2021/03/18 13:12:44;;;;;;;1.88;1.20;;;20.40;44.30;;;;;;6195845;28;20038;-68
2021/03/18 13:15:45;;;;;;;1.65;1.20;;;20.40;44.30;;;;;;6195839;28;20045;-68
2021/03/18 13:18:45;;;;;;;1.90;1.23;;;20.40;44.20;;;;;;6208154;28;20042;-68
2021/03/18 13:21:49;;;;;;;2.05;1.23;;;20.40;44.20;;;;;;6218583;28;20097;-68
2021/03/18 13:24:50;;;;;;;1.58;1.23;;;20.40;44.20;;;;;;6196035;28;20030;-68
2021/03/18 13:27:51;;;;;;;2.47;1.13;;;20.40;44.30;;;;;;6195821;28;20382;-67
2021/03/18 13:30:52;;;;;;;1.50;1.20;;;20.40;44.20;;;;;;6195784;28;20026;-67
2021/03/18 13:33:53;;;;;;;1.33;1.10;;;20.40;44.30;;;;;;6195801;28;20034;-68
2021/03/18 13:36:53;;;;;;;1.55;1.10;;;20.40;44.20;;;;;;6195597;28;20019;-67
2021/03/18 13:39:54;;;;;;;1.70;1.10;;;20.40;44.10;;;;;;6195147;28;20031;-67
2021/03/18 13:42:54;;;;;;;1.55;1.20;;;20.40;44.00;;;;;;6195689;28;20062;-67
2021/03/18 13:45:55;;;;;;;1.17;0.90;;;20.40;44.00;;;;;;6195669;28;20098;-68
2021/03/18 13:48:56;;;;;;;1.85;1.25;;;20.40;43.90;;;;;;6195764;28;20037;-67
2021/03/18 13:51:56;;;;;;;2.35;1.15;;;20.40;44.00;;;;;;6195797;28;20026;-68
2021/03/18 13:54:57;;;;;;;1.20;1.08;;;20.40;44.00;;;;;;6200249;28;20018;-68
2021/03/18 13:57:57;;;;;;;1.30;1.17;;;20.40;44.00;;;;;;6199433;28;20109;-68
2021/03/18 14:01:01;;;;;;;2.15;1.20;;;20.40;44.00;;;;;;6200074;28;20425;-68
2021/03/18 14:04:01;;;;;;;1.50;1.10;;;20.40;44.00;;;;;;6189056;28;20309;-67
2021/03/18 14:07:02;;;;;;;2.13;1.10;;;20.40;43.90;;;;;;6213681;28;20081;-67
2021/03/18 14:10:05;;;;;;;1.80;1.00;;;20.40;43.90;;;;;;6202992;28;20018;-67
2021/03/18 14:13:12;;;;;;;1.25;1.10;;;20.40;43.80;;;;;;6200407;28;20034;-67
2021/03/18 14:16:12;;;;;;;1.55;1.10;;;20.40;44.00;;;;;;6196696;28;20046;-67
2021/03/18 14:19:13;;;;;;;2.58;1.10;;;20.40;44.30;;;;;;6197982;28;20046;-67
2021/03/18 14:22:13;;;;;;;3.33;1.20;;;20.40;44.20;;;;;;6204984;28;20087;-67
2021/03/18 14:25:16;;;;;;;9.93;1.27;;;20.40;44.30;;;;;;6196568;28;20110;-67
2021/03/18 14:28:17;;;;;;;6.60;1.35;;;20.40;44.60;;;;;;6197508;28;20038;-67
2021/03/18 14:31:17;;;;;;;2.10;1.10;;;20.30;44.50;;;;;;6196781;28;20030;-69
2021/03/18 14:34:18;;;;;;;1.80;1.23;;;20.30;44.70;;;;;;6207386;28;20030;-67
2021/03/18 14:37:19;;;;;;;7.00;1.40;;;20.30;44.90;;;;;;6207499;28;20023;-67
2021/03/18 14:40:21;;;;;;;1.48;1.05;;;20.30;45.00;;;;;;6215716;28;20038;-67
2021/03/18 14:43:22;;;;;;;3.72;1.33;;;20.30;45.20;;;;;;6221343;28;20045;-67
2021/03/18 14:46:23;;;;;;;3.35;1.45;;;20.20;45.20;;;;;;6201765;28;20095;-67
2021/03/18 14:49:23;;;;;;;2.10;1.15;;;20.20;45.30;;;;;;6220443;28;20026;-67
2021/03/18 14:52:24;;;;;;;2.45;1.20;;;20.20;45.30;;;;;;6219888;28;20022;-67
2021/03/18 14:55:24;;;;;;;2.35;1.15;;;20.20;45.30;;;;;;6196580;28;20101;-67
2021/03/18 14:58:25;;;;;;;4.35;1.27;;;20.20;45.30;;;;;;6197130;28;20038;-67
2021/03/18 15:01:26;;;;;;;7.68;1.02;;;20.20;45.30;;;;;;6203550;28;20026;-69
2021/03/18 15:04:27;;;;;;;3.75;1.58;;;20.20;45.30;;;;;;6220345;28;20040;-67
2021/03/18 15:07:27;;;;;;;6.53;1.50;;;20.20;45.20;;;;;;6216881;28;20027;-67
2021/03/18 15:10:29;;;;;;;3.72;1.58;;;20.30;44.90;;;;;;6210865;28;20065;-67
2021/03/18 15:13:30;;;;;;;5.70;1.60;;;20.30;44.90;;;;;;6213760;28;20029;-67
2021/03/18 15:16:30;;;;;;;2.22;1.05;;;20.30;44.90;;;;;;6211205;28;20489;-67
2021/03/18 15:19:31;;;;;;;3.70;1.15;;;20.30;44.90;;;;;;6196719;28;20421;-67
2021/03/18 15:22:31;;;;;;;2.90;1.10;;;20.30;44.90;;;;;;6196117;28;20473;-67
2021/03/18 15:25:32;;;;;;;2.25;1.40;;;20.30;44.90;;;;;;6199682;28;20026;-68
2021/03/18 15:28:33;;;;;;;3.65;1.10;;;20.30;45.00;;;;;;6214556;28;20057;-67
2021/03/18 15:31:34;;;;;;;3.10;1.02;;;20.40;45.00;;;;;;6196366;28;20054;-68
2021/03/18 15:34:34;;;;;;;5.53;1.48;;;20.40;44.90;;;;;;6196169;28;20027;-67
2021/03/18 15:37:35;;;;;;;2.75;1.02;;;20.40;45.00;;;;;;6196557;28;20023;-67
2021/03/18 15:40:38;;;;;;;3.22;1.08;;;20.30;44.90;;;;;;6219794;28;20049;-67
2021/03/18 15:43:38;;;;;;;4.78;1.10;;;20.40;45.00;;;;;;6219746;28;20021;-68
2021/03/18 15:46:39;;;;;;;1.48;1.02;;;20.30;44.90;;;;;;6219671;28;20492;-67
2021/03/18 15:49:39;;;;;;;2.95;1.15;;;20.40;45.10;;;;;;6220467;28;20038;-67
2021/03/18 15:52:41;;;;;;;3.00;1.00;;;20.40;45.10;;;;;;6219642;28;20030;-68